Amadore — 9HA2009 — position and weather

sailwx.info

Track history (hours):
 
Tides and Currents Weather Stations Pressure Air Temp Water Temp Dewpoint Dewpoint Depression Visibility Wind Speed Wind Dir Waves Ship Positions

Amadore

Last reported at 2017-Dec-15 23:29 UTC. Time now 2017-Dec-15 23:49 UTC.
Position N 44°09' E 028°39'.

Length 143 m; draft 5 m.

Type: Cargo ship. MMSI: 249784000.

Date/timePositionNaut miles runAvg speedWind from/ knotsBaromVisibWave heightAir tempDewpointWater temp
2017-Dec-15 23:29N 44°09' E 028°39'0 0.0
2017-Dec-15 22:59N 44°09' E 028°39'0 0.0
2017-Dec-15 22:29N 44°09' E 028°39'0 0.0
2017-Dec-15 21:55N 44°09' E 028°39'0 0.0
2017-Dec-15 21:28N 44°09' E 028°39'0 0.0
2017-Dec-15 20:55N 44°09' E 028°39'0 0.0
2017-Dec-15 20:28N 44°09' E 028°39'0 0.0
2017-Dec-15 19:58N 44°09' E 028°39'0 0.0
2017-Dec-15 19:28N 44°09' E 028°39'0 0.0
2017-Dec-15 18:58N 44°09' E 028°39'0 0.0
2017-Dec-15 18:28N 44°09' E 028°39'0 0.0
2017-Dec-15 17:58N 44°09' E 028°39'0 0.0
2017-Dec-15 17:28N 44°09' E 028°39'0 0.0
2017-Dec-15 16:58N 44°09' E 028°39'0 0.0
2017-Dec-15 16:28N 44°09' E 028°39'0 0.0
2017-Dec-15 15:58N 44°09' E 028°39'0 0.0
2017-Dec-15 15:28N 44°09' E 028°39'0 0.0
2017-Dec-15 14:58N 44°09' E 028°39'0 0.0
2017-Dec-15 14:28N 44°09' E 028°39'0 0.0
2017-Dec-15 13:58N 44°09' E 028°39'0 0.0
2017-Dec-15 13:28N 44°09' E 028°39'0 0.0
2017-Dec-15 12:58N 44°09' E 028°39'0 0.0
2017-Dec-15 12:28N 44°09' E 028°39'0 0.0
2017-Dec-15 11:58N 44°09' E 028°39'0 0.0
2017-Dec-15 11:28N 44°09' E 028°39'0 0.0
2017-Dec-15 10:52N 44°09' E 028°39'0 0.0
2017-Dec-15 10:28N 44°09' E 028°39'0 0.0
2017-Dec-15 09:58N 44°09' E 028°39'0 0.0
2017-Dec-15 09:28N 44°09' E 028°39'0 0.0
2017-Dec-15 08:58N 44°09' E 028°39'0 0.0
2017-Dec-15 08:28N 44°09' E 028°39'0 0.0
2017-Dec-15 07:58N 44°09' E 028°39'0 0.0
2017-Dec-15 07:28N 44°09' E 028°39'0 0.0
2017-Dec-15 06:58N 44°09' E 028°39'0 0.0
2017-Dec-15 06:28N 44°09' E 028°39'0 0.0
2017-Dec-15 05:58N 44°09' E 028°39'0 0.0
2017-Dec-15 05:28N 44°09' E 028°39'0 0.0
2017-Dec-15 04:58N 44°09' E 028°39'0 0.0
2017-Dec-15 04:28N 44°09' E 028°39'0 0.0
2017-Dec-15 03:58N 44°09' E 028°39'0 0.0
2017-Dec-15 02:28N 44°09' E 028°39'0 0.0
2017-Dec-15 00:58N 44°09' E 028°39'0 0.0
2017-Dec-15 00:28N 44°09' E 028°39'0 0.0
2017-Dec-14 18:28N 44°09' E 028°39'0 0.0
2017-Dec-14 17:58N 44°09' E 028°39'0 0.0
2017-Dec-14 17:28N 44°09' E 028°39'0 0.0
2017-Dec-14 16:58N 44°09' E 028°39'0 0.0
2017-Dec-14 16:28N 44°09' E 028°39'0 0.0
2017-Dec-14 15:58N 44°09' E 028°39'0 0.0
2017-Dec-14 15:00N 44°09' E 028°39'0 0.2
2017-Dec-14 14:30N 44°09' E 028°39'2 3.1
2017-Dec-14 14:00N 44°08' E 028°41'3 6.8
2017-Dec-14 13:30N 44°05' E 028°43'1 2.4
2017-Dec-14 13:00N 44°05' E 028°45'4 8.0
2017-Dec-14 12:30N 44°02' E 028°48'5 9.7
2017-Dec-14 12:00N 43°58' E 028°52'510.0
2017-Dec-14 11:30N 43°53' E 028°55'5 9.9
2017-Dec-14 11:00N 43°49' E 028°58'4 7.8
2017-Dec-14 10:30N 43°46' E 029°00'4 7.3
2017-Dec-14 10:00N 43°42' E 029°02'3 6.5
2017-Dec-14 09:30N 43°39' E 029°04'3 6.2
2017-Dec-14 09:00N 43°37' E 029°06'1 2.7
2017-Dec-14 08:30N 43°35' E 029°07'3 5.7
2017-Dec-14 08:00N 43°33' E 029°09'2 3.0
2017-Dec-14 07:29N 43°32' E 029°10'3 5.8
2017-Dec-14 06:56N 43°29' E 029°12'3 6.4
2017-Dec-14 06:30N 43°26' E 029°13'4 7.9
2017-Dec-14 06:00N 43°22' E 029°15'4 7.9
2017-Dec-14 05:30N 43°19' E 029°18'4 7.8
2017-Dec-14 05:00N 43°15' E 029°20'4 8.1
2017-Dec-14 04:30N 43°12' E 029°22'  
Track history (hours):
 
Tides and Currents Weather Stations Pressure Air Temp Water Temp Dewpoint Dewpoint Depression Visibility Wind Speed Wind Dir Waves Ship Positions

Amadore

Last reported at 2017-Dec-15 23:29 UTC. Time now 2017-Dec-15 23:49 UTC.
Position N 44°09' E 028°39'.

Length 143 m; draft 5 m.

Type: Cargo ship. MMSI: 249784000.

Date/timePositionNaut miles runAvg speedWind from/ knotsBaromVisibWave heightAir tempDewpointWater temp
2017-Dec-15 23:29N 44°09' E 028°39'0 0.0
2017-Dec-15 22:59N 44°09' E 028°39'0 0.0
2017-Dec-15 22:29N 44°09' E 028°39'0 0.0
2017-Dec-15 21:55N 44°09' E 028°39'0 0.0
2017-Dec-15 21:28N 44°09' E 028°39'0 0.0
2017-Dec-15 20:55N 44°09' E 028°39'0 0.0
2017-Dec-15 20:28N 44°09' E 028°39'0 0.0
2017-Dec-15 19:58N 44°09' E 028°39'0 0.0
2017-Dec-15 19:28N 44°09' E 028°39'0 0.0
2017-Dec-15 18:58N 44°09' E 028°39'0 0.0
2017-Dec-15 18:28N 44°09' E 028°39'0 0.0
2017-Dec-15 17:58N 44°09' E 028°39'0 0.0
2017-Dec-15 17:28N 44°09' E 028°39'0 0.0
2017-Dec-15 16:58N 44°09' E 028°39'0 0.0
2017-Dec-15 16:28N 44°09' E 028°39'0 0.0
2017-Dec-15 15:58N 44°09' E 028°39'0 0.0
2017-Dec-15 15:28N 44°09' E 028°39'0 0.0
2017-Dec-15 14:58N 44°09' E 028°39'0 0.0
2017-Dec-15 14:28N 44°09' E 028°39'0 0.0
2017-Dec-15 13:58N 44°09' E 028°39'0 0.0
2017-Dec-15 13:28N 44°09' E 028°39'0 0.0
2017-Dec-15 12:58N 44°09' E 028°39'0 0.0
2017-Dec-15 12:28N 44°09' E 028°39'0 0.0
2017-Dec-15 11:58N 44°09' E 028°39'0 0.0
2017-Dec-15 11:28N 44°09' E 028°39'0 0.0
2017-Dec-15 10:52N 44°09' E 028°39'0 0.0
2017-Dec-15 10:28N 44°09' E 028°39'0 0.0
2017-Dec-15 09:58N 44°09' E 028°39'0 0.0
2017-Dec-15 09:28N 44°09' E 028°39'0 0.0
2017-Dec-15 08:58N 44°09' E 028°39'0 0.0
2017-Dec-15 08:28N 44°09' E 028°39'0 0.0
2017-Dec-15 07:58N 44°09' E 028°39'0 0.0
2017-Dec-15 07:28N 44°09' E 028°39'0 0.0
2017-Dec-15 06:58N 44°09' E 028°39'0 0.0
2017-Dec-15 06:28N 44°09' E 028°39'0 0.0
2017-Dec-15 05:58N 44°09' E 028°39'0 0.0
2017-Dec-15 05:28N 44°09' E 028°39'0 0.0
2017-Dec-15 04:58N 44°09' E 028°39'0 0.0
2017-Dec-15 04:28N 44°09' E 028°39'0 0.0
2017-Dec-15 03:58N 44°09' E 028°39'0 0.0
2017-Dec-15 02:28N 44°09' E 028°39'0 0.0
2017-Dec-15 00:58N 44°09' E 028°39'0 0.0
2017-Dec-15 00:28N 44°09' E 028°39'0 0.0
2017-Dec-14 18:28N 44°09' E 028°39'0 0.0
2017-Dec-14 17:58N 44°09' E 028°39'0 0.0
2017-Dec-14 17:28N 44°09' E 028°39'0 0.0
2017-Dec-14 16:58N 44°09' E 028°39'0 0.0
2017-Dec-14 16:28N 44°09' E 028°39'0 0.0
2017-Dec-14 15:58N 44°09' E 028°39'0 0.0
2017-Dec-14 15:00N 44°09' E 028°39'0 0.2
2017-Dec-14 14:30N 44°09' E 028°39'2 3.1
2017-Dec-14 14:00N 44°08' E 028°41'3 6.8
2017-Dec-14 13:30N 44°05' E 028°43'1 2.4
2017-Dec-14 13:00N 44°05' E 028°45'4 8.0
2017-Dec-14 12:30N 44°02' E 028°48'5 9.7
2017-Dec-14 12:00N 43°58' E 028°52'510.0
2017-Dec-14 11:30N 43°53' E 028°55'5 9.9
2017-Dec-14 11:00N 43°49' E 028°58'4 7.8
2017-Dec-14 10:30N 43°46' E 029°00'4 7.3
2017-Dec-14 10:00N 43°42' E 029°02'3 6.5
2017-Dec-14 09:30N 43°39' E 029°04'3 6.2
2017-Dec-14 09:00N 43°37' E 029°06'1 2.7
2017-Dec-14 08:30N 43°35' E 029°07'3 5.7
2017-Dec-14 08:00N 43°33' E 029°09'2 3.0
2017-Dec-14 07:29N 43°32' E 029°10'3 5.8
2017-Dec-14 06:56N 43°29' E 029°12'3 6.4
2017-Dec-14 06:30N 43°26' E 029°13'4 7.9
2017-Dec-14 06:00N 43°22' E 029°15'4 7.9
2017-Dec-14 05:30N 43°19' E 029°18'4 7.8
2017-Dec-14 05:00N 43°15' E 029°20'4 8.1
2017-Dec-14 04:30N 43°12' E 029°22'  

Dump ship's entire track history